createdAt,value
2022-08-12T00:00:53.259Z,101944.56
2022-08-12T00:03:38.982Z,101939.28
2022-08-12T00:06:25.733Z,101940.69
2022-08-12T00:09:11.547Z,101940.25
2022-08-12T00:11:56.886Z,101944.91
2022-08-12T00:14:42.588Z,101937.03
2022-08-12T00:17:29.229Z,101939.00
2022-08-12T00:20:14.744Z,101933.94
2022-08-12T00:23:00.419Z,101931.50
2022-08-12T00:26:21.253Z,101938.00
2022-08-12T00:29:01.865Z,101937.22
2022-08-12T00:31:46.980Z,101935.16
2022-08-12T00:34:34.197Z,101931.03
2022-08-12T00:37:19.966Z,101937.69
2022-08-12T00:40:11.014Z,101938.94
2022-08-12T00:42:39.746Z,101943.13
2022-08-12T00:45:08.532Z,101937.41
2022-08-12T00:47:37.369Z,101943.66
2022-08-12T00:50:07.950Z,101941.94
2022-08-12T00:52:36.390Z,101927.69
2022-08-12T00:55:06.475Z,101940.56
2022-08-12T00:57:37.412Z,101938.69
2022-08-12T01:00:09.608Z,101940.94
2022-08-12T01:02:40.640Z,101941.28
2022-08-12T01:05:29.652Z,101943.50
2022-08-12T01:08:15.192Z,101932.88
2022-08-12T01:11:02.059Z,101933.38
2022-08-12T01:13:31.412Z,101937.16
2022-08-12T01:16:00.477Z,101930.44
2022-08-12T01:18:30.202Z,101935.28
2022-08-12T01:21:12.968Z,101934.06
2022-08-12T01:24:29.478Z,101923.75
2022-08-12T01:26:53.242Z,101934.06
2022-08-12T01:29:26.256Z,101931.50
2022-08-12T01:32:00.727Z,101927.34
2022-08-12T01:34:36.270Z,101932.19
2022-08-12T01:37:07.274Z,101929.75
2022-08-12T01:39:36.982Z,101925.66
2022-08-12T01:42:09.563Z,101928.06
2022-08-12T01:44:38.647Z,101926.34
2022-08-12T01:47:12.814Z,101929.25
2022-08-12T01:49:52.232Z,101924.94
2022-08-12T01:52:30.736Z,101926.81
2022-08-12T01:55:01.158Z,101928.22
2022-08-12T01:57:57.619Z,101919.63
2022-08-12T02:00:44.902Z,101912.91
2022-08-12T02:04:03.426Z,101914.09
2022-08-12T02:06:52.874Z,101916.31
2022-08-12T02:09:42.753Z,101917.00
2022-08-12T02:12:15.750Z,101923.13
2022-08-12T02:14:52.852Z,101928.91
2022-08-12T02:17:55.674Z,101916.44
2022-08-12T02:20:35.350Z,101914.69
2022-08-12T02:23:20.318Z,101913.50
2022-08-12T02:25:48.897Z,101913.50
2022-08-12T02:28:16.869Z,101913.50
2022-08-12T02:30:46.323Z,101907.47
2022-08-12T02:33:15.005Z,101912.28
2022-08-12T02:35:42.985Z,101911.03
2022-08-12T02:38:12.584Z,101920.88
2022-08-12T02:40:45.486Z,101912.84
2022-08-12T02:43:17.392Z,101913.59
2022-08-12T02:45:51.375Z,101911.16
2022-08-12T02:48:23.225Z,101916.13
2022-08-12T02:50:54.040Z,101895.34
2022-08-12T02:53:22.316Z,101908.16
2022-08-12T02:55:50.450Z,101908.41
2022-08-12T02:58:19.814Z,101903.31
2022-08-12T03:00:49.800Z,101905.41
2022-08-12T03:03:20.691Z,101905.59
2022-08-12T03:05:52.439Z,101903.16
2022-08-12T03:08:32.736Z,101905.38
2022-08-12T03:11:04.614Z,101902.50
2022-08-12T03:13:36.640Z,101903.59
2022-08-12T03:16:07.682Z,101895.34
2022-08-12T03:18:36.397Z,101893.84
2022-08-12T03:21:04.860Z,101893.38
2022-08-12T03:23:32.875Z,101891.03
2022-08-12T03:26:02.419Z,101893.47
2022-08-12T03:28:51.842Z,101889.09
2022-08-12T03:31:24.626Z,101886.63
2022-08-12T03:34:01.778Z,101889.75
2022-08-12T03:36:33.562Z,101891.50
2022-08-12T03:39:16.752Z,101891.28
2022-08-12T03:41:51.224Z,101888.81
2022-08-12T03:44:42.219Z,101891.06
2022-08-12T03:47:33.243Z,101893.03
2022-08-12T03:50:19.005Z,101885.88
2022-08-12T03:53:04.538Z,101881.44
2022-08-12T03:55:49.766Z,101880.53
2022-08-12T03:58:35.559Z,101880.25
2022-08-12T04:01:03.680Z,101886.38
2022-08-12T04:03:50.765Z,101883.75
2022-08-12T04:06:34.533Z,101895.38
2022-08-12T04:09:16.051Z,101889.34
2022-08-12T04:12:15.124Z,101890.41
2022-08-12T04:14:43.140Z,101878.75
2022-08-12T04:17:12.026Z,101894.44
2022-08-12T04:19:41.390Z,101883.19
2022-08-12T04:22:09.953Z,101882.44
2022-08-12T04:24:40.773Z,101881.88
2022-08-12T04:27:10.844Z,101887.94
2022-08-12T04:30:30.099Z,101890.06
2022-08-12T04:32:27.607Z,101888.31
2022-08-12T04:34:57.140Z,101882.03
2022-08-12T04:37:25.098Z,101885.44
2022-08-12T04:39:54.140Z,101881.50
2022-08-12T04:42:23.838Z,101885.19
2022-08-12T04:44:51.872Z,101882.06
2022-08-12T04:47:21.306Z,101886.19
2022-08-12T04:49:49.312Z,101873.97
2022-08-12T04:52:19.066Z,101876.81
2022-08-12T04:54:47.953Z,101884.38
2022-08-12T04:57:16.106Z,101883.41
2022-08-12T04:59:47.731Z,101882.84
2022-08-12T05:02:21.455Z,101885.75
2022-08-12T05:04:51.088Z,101891.47
2022-08-12T05:07:20.561Z,101894.59
2022-08-12T05:09:59.829Z,101895.94
2022-08-12T05:12:34.345Z,101892.25
2022-08-12T05:15:02.493Z,101889.81
2022-08-12T05:17:30.476Z,101883.75
2022-08-12T05:19:59.880Z,101884.38
2022-08-12T05:22:30.106Z,101888.50
2022-08-12T05:24:58.159Z,101891.94
2022-08-12T05:27:28.291Z,101881.56
2022-08-12T05:30:05.362Z,101881.88
2022-08-12T05:32:37.588Z,101888.63
2022-08-12T05:35:08.249Z,101887.44
2022-08-12T05:37:37.614Z,101880.00
2022-08-12T05:40:11.043Z,101892.56
2022-08-12T05:42:39.585Z,101889.38
2022-08-12T05:45:09.126Z,101892.38
2022-08-12T05:47:53.399Z,101893.44
2022-08-12T05:50:22.427Z,101889.91
2022-08-12T05:52:53.002Z,101897.09
2022-08-12T05:55:25.885Z,101900.31
2022-08-12T05:57:56.689Z,101895.47
2022-08-12T06:00:26.004Z,101893.19
2022-08-12T06:02:56.501Z,101901.97
2022-08-12T06:05:24.696Z,101897.34
2022-08-12T06:08:01.836Z,101896.66
2022-08-12T06:10:32.930Z,101895.50
2022-08-12T06:13:02.592Z,101894.91
2022-08-12T06:15:31.606Z,101900.06
2022-08-12T06:18:11.555Z,101904.69
2022-08-12T06:20:43.419Z,101898.06
2022-08-12T06:23:15.401Z,101900.66
2022-08-12T06:25:43.666Z,101899.81
2022-08-12T06:28:17.856Z,101901.19
2022-08-12T06:31:02.656Z,101911.34
2022-08-12T06:33:55.827Z,101899.63
2022-08-12T06:36:29.904Z,101915.47
2022-08-12T06:42:33.068Z,101900.16
2022-08-12T06:45:01.727Z,101912.38
2022-08-12T06:47:29.787Z,101909.50
2022-08-12T06:49:58.007Z,101924.16
2022-08-12T06:52:26.216Z,101918.31
2022-08-12T06:54:55.847Z,101909.13
2022-08-12T06:58:05.701Z,101922.31
2022-08-12T07:00:16.879Z,101917.28
2022-08-12T07:02:46.400Z,101915.97
2022-08-12T07:05:14.401Z,101915.00
2022-08-12T07:07:42.602Z,101913.88
2022-08-12T07:10:12.809Z,101913.41
2022-08-12T07:12:40.978Z,101907.75
2022-08-12T07:15:10.192Z,101918.69
2022-08-12T07:17:38.329Z,101905.53
2022-08-12T07:20:09.995Z,101909.91
2022-08-12T07:22:41.899Z,101906.84
2022-08-12T07:25:29.621Z,101919.56
2022-08-12T07:28:16.452Z,101920.06
2022-08-12T07:30:46.244Z,101901.97
2022-08-12T07:33:16.938Z,101910.19
2022-08-12T07:35:48.035Z,101912.69
2022-08-12T07:38:29.914Z,101906.47
2022-08-12T07:41:03.370Z,101910.28
2022-08-12T07:43:32.967Z,101908.44
2022-08-12T07:46:02.595Z,101919.22
2022-08-12T07:48:37.069Z,101926.31
2022-08-12T07:51:05.747Z,101918.25
2022-08-12T07:53:50.176Z,101924.06
2022-08-12T07:56:27.522Z,101918.13
2022-08-12T07:58:59.499Z,101925.28
2022-08-12T08:01:28.286Z,101935.81
2022-08-12T08:04:18.734Z,101921.28
2022-08-12T08:06:48.533Z,101921.59
2022-08-12T08:09:18.441Z,101921.09
2022-08-12T08:12:05.507Z,101920.84
2022-08-12T08:14:34.312Z,101922.22
2022-08-12T08:17:08.703Z,101918.69
2022-08-12T08:20:03.252Z,101919.19
2022-08-12T08:22:41.660Z,101915.38
2022-08-12T08:25:35.192Z,101908.59
2022-08-12T08:28:04.892Z,101921.31
2022-08-12T08:30:38.357Z,101925.66
2022-08-12T08:33:24.546Z,101922.66
2022-08-12T08:35:57.434Z,101925.91
2022-08-12T08:38:33.304Z,101936.84
2022-08-12T08:42:16.428Z,101927.06
2022-08-12T08:44:28.693Z,101927.13
2022-08-12T08:46:56.836Z,101937.38
2022-08-12T08:49:34.348Z,101925.13
2022-08-12T08:52:12.781Z,101920.03
2022-08-12T08:55:01.045Z,101928.59
2022-08-12T08:57:44.153Z,101929.91
2022-08-12T09:00:17.785Z,101923.25
2022-08-12T09:02:58.564Z,101920.31
2022-08-12T09:06:01.540Z,101914.63
2022-08-12T09:08:26.808Z,101913.53
2022-08-12T09:10:59.908Z,101921.03
2022-08-12T09:14:11.823Z,101911.19
2022-08-12T09:16:30.029Z,101911.59
2022-08-12T09:19:37.125Z,101906.44
2022-08-12T09:22:29.271Z,101906.91
2022-08-12T09:26:04.290Z,101909.25
2022-08-12T09:32:03.373Z,101915.13
2022-08-12T09:34:42.425Z,101905.28
2022-08-12T09:37:19.949Z,101893.72
2022-08-12T09:40:04.631Z,101912.44
2022-08-12T09:43:16.072Z,101902.97
2022-08-12T09:48:36.245Z,101899.59
2022-08-12T09:51:22.468Z,101908.94
2022-08-12T09:54:33.488Z,101901.44
2022-08-12T09:58:59.037Z,101904.25
2022-08-12T10:01:15.438Z,101893.28
2022-08-12T10:04:23.691Z,101888.72
2022-08-12T10:10:27.011Z,101879.53
2022-08-12T10:13:41.128Z,101873.56
2022-08-12T10:19:51.943Z,101853.56
2022-08-12T10:22:40.934Z,101863.31
2022-08-12T10:26:37.469Z,101854.25
2022-08-12T10:38:43.800Z,101835.91
2022-08-12T10:41:57.994Z,101844.38
2022-08-12T10:45:17.043Z,101828.94
2022-08-12T10:48:21.401Z,101840.56
2022-08-12T10:52:04.401Z,101835.72
2022-08-12T11:04:18.021Z,101822.88
2022-08-12T11:07:02.017Z,101823.03
2022-08-12T11:08:34.868Z,101818.06
2022-08-12T11:10:50.152Z,101816.38
2022-08-12T11:13:20.542Z,101811.16
2022-08-12T11:16:22.672Z,101814.34
2022-08-12T11:19:03.007Z,101815.16
2022-08-12T11:21:51.400Z,101800.56
2022-08-12T11:25:11.527Z,101801.88
2022-08-12T11:27:51.569Z,101792.31
2022-08-12T11:31:13.986Z,101798.63
2022-08-12T11:34:05.048Z,101800.66
2022-08-12T11:44:34.986Z,101795.50
2022-08-12T11:52:26.517Z,101793.00
2022-08-12T11:55:25.721Z,101783.41
2022-08-12T12:02:03.066Z,101784.25
2022-08-12T12:17:38.076Z,101773.69
2022-08-12T12:19:15.888Z,101762.78
2022-08-12T12:22:33.529Z,101769.06
2022-08-12T12:26:07.461Z,101774.34
2022-08-12T12:29:01.065Z,101766.09
2022-08-12T12:32:09.440Z,101765.78
2022-08-12T12:34:30.399Z,101759.19
2022-08-12T12:37:02.828Z,101765.84
2022-08-12T12:39:54.883Z,101763.59
2022-08-12T12:42:43.040Z,101758.06
2022-08-12T12:45:19.684Z,101759.28
2022-08-12T12:48:10.771Z,101755.66
2022-08-12T12:50:55.021Z,101758.69
2022-08-12T12:54:08.639Z,101751.47
2022-08-12T12:56:17.151Z,101750.09
2022-08-12T12:58:49.814Z,101746.75
2022-08-12T13:01:26.909Z,101742.06
2022-08-12T13:04:02.123Z,101734.53
2022-08-12T13:06:30.765Z,101740.34
2022-08-12T13:09:02.667Z,101743.19
2022-08-12T13:11:41.358Z,101744.53
2022-08-12T13:14:27.913Z,101736.94
2022-08-12T13:16:58.527Z,101737.81
2022-08-12T13:19:36.676Z,101739.41
2022-08-12T13:22:20.086Z,101731.47
2022-08-12T13:24:54.567Z,101730.66
2022-08-12T13:27:22.960Z,101729.53
2022-08-12T13:30:03.884Z,101735.88
2022-08-12T13:32:32.330Z,101730.38
2022-08-12T13:35:04.012Z,101732.16
2022-08-12T13:37:43.653Z,101744.47
2022-08-12T13:40:21.124Z,101726.34
2022-08-12T13:42:57.770Z,101733.16
2022-08-12T13:45:29.082Z,101732.50
2022-08-12T13:47:58.345Z,101735.00
2022-08-12T13:50:32.608Z,101736.75
2022-08-12T13:53:24.223Z,101734.78
2022-08-12T13:56:01.921Z,101732.28
2022-08-12T13:58:40.863Z,101732.00
2022-08-12T14:01:20.635Z,101724.69
2022-08-12T14:03:56.593Z,101719.63
2022-08-12T14:06:32.065Z,101711.44
2022-08-12T14:09:00.716Z,101716.50
2022-08-12T14:15:08.172Z,101706.91
2022-08-12T14:17:52.278Z,101709.94
2022-08-12T14:20:27.791Z,101702.91
2022-08-12T14:24:01.587Z,101711.09
2022-08-12T14:26:21.503Z,101700.66
2022-08-12T14:29:04.324Z,101702.59
2022-08-12T14:31:37.719Z,101696.28
2022-08-12T14:38:01.712Z,101693.81
2022-08-12T14:40:18.833Z,101684.13
2022-08-12T14:43:01.580Z,101694.47
2022-08-12T14:46:01.926Z,101694.00
2022-08-12T14:48:50.728Z,101693.50
2022-08-12T14:52:44.146Z,101687.56
2022-08-12T14:57:20.120Z,101691.31
2022-08-12T15:03:06.331Z,101674.31
2022-08-12T15:06:03.554Z,101675.34
2022-08-12T15:08:52.543Z,101671.84
2022-08-12T15:11:54.842Z,101670.88
2022-08-12T15:15:08.275Z,101682.22
2022-08-12T15:17:47.682Z,101680.44
2022-08-12T15:20:32.507Z,101675.09
2022-08-12T15:23:17.698Z,101672.94
2022-08-12T15:26:02.483Z,101665.63
2022-08-12T15:28:32.842Z,101681.38
2022-08-12T15:31:02.442Z,101677.91
2022-08-12T15:33:44.800Z,101675.41
2022-08-12T15:36:16.885Z,101669.94
2022-08-12T15:38:47.710Z,101661.75
2022-08-12T15:41:23.649Z,101668.72
2022-08-12T15:44:36.543Z,101671.16
2022-08-12T15:46:41.335Z,101662.59
2022-08-12T15:49:17.141Z,101656.63
2022-08-12T15:51:58.601Z,101667.63
2022-08-12T15:54:34.644Z,101647.34
2022-08-12T15:57:08.219Z,101649.84
2022-08-12T16:00:02.346Z,101654.03
2022-08-12T16:02:29.910Z,101648.56
2022-08-12T16:06:10.297Z,101663.81
2022-08-12T16:08:03.217Z,101643.66
2022-08-12T16:10:32.044Z,101649.94
2022-08-12T16:13:13.130Z,101644.56
2022-08-12T16:15:51.207Z,101633.88
2022-08-12T16:18:31.019Z,101637.53
2022-08-12T16:21:51.882Z,101637.53
2022-08-12T16:24:28.274Z,101633.25
2022-08-12T16:26:57.977Z,101644.16
2022-08-12T16:29:52.519Z,101622.84
2022-08-12T16:32:24.050Z,101629.09
2022-08-12T16:34:58.093Z,101628.44
2022-08-12T16:38:49.933Z,101624.03
2022-08-12T16:41:20.167Z,101622.19
2022-08-12T16:43:49.138Z,101623.13
2022-08-12T16:46:31.468Z,101625.19
2022-08-12T16:49:04.207Z,101628.47
2022-08-12T16:51:40.697Z,101622.97
2022-08-12T16:54:14.133Z,101628.47
2022-08-12T16:56:51.132Z,101622.09
2022-08-12T16:59:53.399Z,101620.72
2022-08-12T17:02:33.829Z,101620.81
2022-08-12T17:05:04.842Z,101616.72
2022-08-12T17:07:43.819Z,101606.19
2022-08-12T17:10:36.027Z,101612.69
2022-08-12T17:13:09.912Z,101611.34
2022-08-12T17:15:57.137Z,101605.72
2022-08-12T17:18:42.902Z,101606.81
2022-08-12T17:21:17.302Z,101604.56
2022-08-12T17:23:53.431Z,101599.22
2022-08-12T17:26:30.853Z,101605.78
2022-08-12T17:29:00.279Z,101588.56
2022-08-12T17:32:01.338Z,101593.34
2022-08-12T17:34:33.465Z,101606.59
2022-08-12T17:37:05.124Z,101597.63
2022-08-12T17:40:14.937Z,101602.59
2022-08-12T17:42:32.890Z,101600.69
2022-08-12T17:45:17.959Z,101591.47
2022-08-12T17:48:04.945Z,101602.16
2022-08-12T17:50:39.660Z,101597.47
2022-08-12T17:53:10.164Z,101597.13
2022-08-12T17:55:47.386Z,101599.81
2022-08-12T17:58:17.482Z,101587.88
2022-08-12T18:00:48.123Z,101592.19
2022-08-12T18:04:05.586Z,101605.66
2022-08-12T18:06:13.645Z,101589.97
2022-08-12T18:08:53.414Z,101593.16
2022-08-12T18:12:04.664Z,101599.81
2022-08-12T18:14:28.616Z,101588.44
2022-08-12T18:17:00.306Z,101606.09
2022-08-12T18:20:03.591Z,101593.84
2022-08-12T18:22:30.345Z,101595.56
2022-08-12T18:25:04.237Z,101607.81
2022-08-12T18:27:44.621Z,101612.03
2022-08-12T18:30:20.982Z,101614.28
2022-08-12T18:33:04.016Z,101611.28
2022-08-12T18:35:47.719Z,101615.63
2022-08-12T18:38:25.242Z,101619.81
2022-08-12T18:41:11.498Z,101625.13
2022-08-12T18:44:02.529Z,101626.34
2022-08-12T18:46:53.345Z,101620.50
2022-08-12T18:49:29.737Z,101636.31
2022-08-12T18:52:04.380Z,101638.81
2022-08-12T18:54:41.384Z,101625.03
2022-08-12T18:57:45.809Z,101636.25
2022-08-12T19:00:09.843Z,101631.91
2022-08-12T19:02:39.887Z,101629.34
2022-08-12T19:05:11.132Z,101646.75
2022-08-12T19:07:57.713Z,101640.94
2022-08-12T19:10:30.780Z,101638.66
2022-08-12T19:13:23.017Z,101648.63
2022-08-12T19:15:53.581Z,101642.44
2022-08-12T19:18:22.221Z,101649.78
2022-08-12T19:20:50.831Z,101646.13
2022-08-12T19:23:20.968Z,101640.72
2022-08-12T19:26:01.517Z,101638.78
2022-08-12T19:28:35.442Z,101658.53
2022-08-12T19:31:44.767Z,101649.56
2022-08-12T19:34:56.269Z,101656.16
2022-08-12T19:37:20.164Z,101658.06
2022-08-12T19:40:09.151Z,101656.28
2022-08-12T19:42:44.862Z,101657.63
2022-08-12T19:45:16.849Z,101660.13
2022-08-12T19:47:46.781Z,101651.78
2022-08-12T19:50:20.323Z,101668.66
2022-08-12T19:52:51.254Z,101663.63
2022-08-12T19:55:21.792Z,101663.38
2022-08-12T19:58:02.710Z,101671.69
2022-08-12T20:00:34.686Z,101668.22
2022-08-12T20:03:04.523Z,101670.38
2022-08-12T20:06:04.739Z,101668.00
2022-08-12T20:08:37.942Z,101662.72
2022-08-12T20:12:15.109Z,101659.03
2022-08-12T20:14:03.904Z,101670.22
2022-08-12T20:16:52.356Z,101673.16
2022-08-12T20:19:52.299Z,101682.06
2022-08-12T20:22:24.254Z,101660.53
2022-08-12T20:25:01.549Z,101670.16
2022-08-12T20:28:03.508Z,101672.28
2022-08-12T20:30:52.651Z,101676.66
2022-08-12T20:33:17.478Z,101685.53
2022-08-12T20:38:49.257Z,101680.69
2022-08-12T20:41:22.191Z,101676.38
2022-08-12T20:44:05.157Z,101673.41
2022-08-12T20:46:53.367Z,101670.16
2022-08-12T20:49:21.690Z,101678.72
2022-08-12T20:51:56.110Z,101673.63
2022-08-12T20:54:32.255Z,101672.50
2022-08-12T20:57:07.463Z,101665.69
2022-08-12T20:59:48.152Z,101668.28
2022-08-12T21:02:24.753Z,101665.50
2022-08-12T21:06:09.485Z,101665.09
2022-08-12T21:08:18.567Z,101667.19
2022-08-12T21:10:51.267Z,101669.78
2022-08-12T21:13:20.947Z,101682.75
2022-08-12T21:15:55.105Z,101677.84
2022-08-12T21:18:30.574Z,101668.81
2022-08-12T21:21:00.008Z,101673.78
2022-08-12T21:23:30.637Z,101674.31
2022-08-12T21:26:11.226Z,101679.06
2022-08-12T21:28:41.580Z,101671.78
2022-08-12T21:32:39.196Z,101662.50
2022-08-12T21:34:17.978Z,101678.09
2022-08-12T21:36:49.558Z,101673.22
2022-08-12T21:39:21.826Z,101678.84
2022-08-12T21:41:52.635Z,101679.16
2022-08-12T21:44:32.658Z,101670.91
2022-08-12T21:47:19.571Z,101679.09
2022-08-12T21:49:53.851Z,101674.66
2022-08-12T21:52:34.069Z,101676.09
2022-08-12T21:55:03.541Z,101679.56
2022-08-12T21:57:36.481Z,101678.28
2022-08-12T22:00:19.874Z,101678.06
2022-08-12T22:03:05.314Z,101677.41
2022-08-12T22:05:57.390Z,101674.44
2022-08-12T22:08:26.205Z,101686.81
2022-08-12T22:10:56.286Z,101689.34
2022-08-12T22:14:07.429Z,101682.28
2022-08-12T22:16:13.958Z,101679.16
2022-08-12T22:18:55.342Z,101678.34
2022-08-12T22:21:24.963Z,101680.16
2022-08-12T22:24:05.307Z,101685.25
2022-08-12T22:26:37.358Z,101683.88
2022-08-12T22:29:23.998Z,101684.56
2022-08-12T22:32:00.509Z,101683.31
2022-08-12T22:34:34.984Z,101687.00
2022-08-12T22:37:19.588Z,101689.38
2022-08-12T22:39:49.177Z,101683.84
2022-08-12T22:42:35.309Z,101684.16
2022-08-12T22:45:23.397Z,101685.63
2022-08-12T22:47:54.840Z,101688.47
2022-08-12T22:50:26.993Z,101687.28
2022-08-12T22:53:15.473Z,101686.63
2022-08-12T22:55:59.687Z,101683.31
2022-08-12T22:58:34.158Z,101687.53
2022-08-12T23:01:03.471Z,101687.84
2022-08-12T23:03:48.391Z,101691.38
2022-08-12T23:06:19.569Z,101677.84
2022-08-12T23:08:49.978Z,101681.66
2022-08-12T23:11:23.502Z,101680.63
2022-08-12T23:13:54.718Z,101682.91
2022-08-12T23:16:30.953Z,101688.09
2022-08-12T23:19:10.939Z,101684.66
2022-08-12T23:22:05.005Z,101679.50
2022-08-12T23:24:55.416Z,101681.69
2022-08-12T23:27:51.330Z,101686.56
2022-08-12T23:30:25.035Z,101685.94
2022-08-12T23:33:01.398Z,101688.34
2022-08-12T23:35:58.789Z,101683.22
2022-08-12T23:38:30.634Z,101686.09
2022-08-12T23:41:05.692Z,101678.75
2022-08-12T23:43:39.238Z,101693.56
2022-08-12T23:46:09.997Z,101683.94
2022-08-12T23:48:38.712Z,101682.00
2022-08-12T23:51:22.149Z,101692.47
2022-08-12T23:53:54.643Z,101683.31
2022-08-12T23:56:26.051Z,101681.13
2022-08-12T23:59:00.251Z,101677.13
